sensor_id;sensor_type;location;lat;lon;timestamp;P1;durP1;ratioP1;P2;durP2;ratioP2
56083;SDS011;41958;52.416;13.428;2022-07-29T00:00:50;5.47;;;2.05;;
56083;SDS011;41958;52.416;13.428;2022-07-29T00:03:15;3.72;;;2.10;;
56083;SDS011;41958;52.416;13.428;2022-07-29T00:05:41;4.03;;;2.30;;
56083;SDS011;41958;52.416;13.428;2022-07-29T00:08:06;7.78;;;2.13;;
56083;SDS011;41958;52.416;13.428;2022-07-29T00:10:33;6.95;;;2.03;;
56083;SDS011;41958;52.416;13.428;2022-07-29T00:12:59;2.42;;;1.70;;
56083;SDS011;41958;52.416;13.428;2022-07-29T00:15:24;5.32;;;2.30;;
56083;SDS011;41958;52.416;13.428;2022-07-29T00:17:50;5.05;;;1.88;;
56083;SDS011;41958;52.416;13.428;2022-07-29T00:20:15;4.50;;;2.15;;
56083;SDS011;41958;52.416;13.428;2022-07-29T00:22:41;3.10;;;2.30;;
56083;SDS011;41958;52.416;13.428;2022-07-29T00:25:06;5.55;;;2.20;;
56083;SDS011;41958;52.416;13.428;2022-07-29T00:27:32;7.25;;;2.10;;
56083;SDS011;41958;52.416;13.428;2022-07-29T00:29:58;3.92;;;2.22;;
56083;SDS011;41958;52.416;13.428;2022-07-29T00:32:23;7.35;;;2.47;;
56083;SDS011;41958;52.416;13.428;2022-07-29T00:34:48;2.90;;;2.08;;
56083;SDS011;41958;52.416;13.428;2022-07-29T00:37:32;2.83;;;2.20;;
56083;SDS011;41958;52.416;13.428;2022-07-29T00:39:57;5.32;;;2.15;;
56083;SDS011;41958;52.416;13.428;2022-07-29T00:42:22;4.60;;;2.20;;
56083;SDS011;41958;52.416;13.428;2022-07-29T00:44:48;4.65;;;2.30;;
56083;SDS011;41958;52.416;13.428;2022-07-29T00:47:13;5.47;;;2.20;;
56083;SDS011;41958;52.416;13.428;2022-07-29T00:49:39;3.58;;;2.25;;
56083;SDS011;41958;52.416;13.428;2022-07-29T00:52:05;4.00;;;2.30;;
56083;SDS011;41958;52.416;13.428;2022-07-29T00:54:32;6.30;;;2.45;;
56083;SDS011;41958;52.416;13.428;2022-07-29T00:56:58;7.93;;;2.40;;
56083;SDS011;41958;52.416;13.428;2022-07-29T00:59:24;4.40;;;2.38;;
56083;SDS011;41958;52.416;13.428;2022-07-29T01:01:50;5.15;;;2.45;;
56083;SDS011;41958;52.416;13.428;2022-07-29T01:04:15;6.32;;;2.47;;
56083;SDS011;41958;52.416;13.428;2022-07-29T01:06:41;4.93;;;2.38;;
56083;SDS011;41958;52.416;13.428;2022-07-29T01:09:07;5.32;;;2.70;;
56083;SDS011;41958;52.416;13.428;2022-07-29T01:11:33;5.38;;;2.55;;
56083;SDS011;41958;52.416;13.428;2022-07-29T01:13:59;3.97;;;2.28;;
56083;SDS011;41958;52.416;13.428;2022-07-29T01:16:31;3.47;;;2.33;;
56083;SDS011;41958;52.416;13.428;2022-07-29T01:19:06;4.90;;;2.85;;
56083;SDS011;41958;52.416;13.428;2022-07-29T01:21:44;5.95;;;2.55;;
56083;SDS011;41958;52.416;13.428;2022-07-29T01:26:57;7.22;;;2.60;;
56083;SDS011;41958;52.416;13.428;2022-07-29T01:29:34;7.28;;;2.92;;
56083;SDS011;41958;52.416;13.428;2022-07-29T01:32:19;6.18;;;2.60;;
56083;SDS011;41958;52.416;13.428;2022-07-29T01:37:28;5.32;;;2.75;;
56083;SDS011;41958;52.416;13.428;2022-07-29T01:40:01;6.00;;;2.65;;
56083;SDS011;41958;52.416;13.428;2022-07-29T01:42:36;3.72;;;2.50;;
56083;SDS011;41958;52.416;13.428;2022-07-29T01:48:03;3.20;;;2.28;;
56083;SDS011;41958;52.416;13.428;2022-07-29T01:50:40;3.15;;;2.60;;
56083;SDS011;41958;52.416;13.428;2022-07-29T01:53:12;4.10;;;2.70;;
56083;SDS011;41958;52.416;13.428;2022-07-29T01:55:40;6.38;;;2.60;;
56083;SDS011;41958;52.416;13.428;2022-07-29T01:58:09;5.43;;;3.42;;
56083;SDS011;41958;52.416;13.428;2022-07-29T02:00:36;5.80;;;2.63;;
56083;SDS011;41958;52.416;13.428;2022-07-29T02:03:05;6.22;;;3.38;;
56083;SDS011;41958;52.416;13.428;2022-07-29T02:05:34;4.18;;;2.78;;
56083;SDS011;41958;52.416;13.428;2022-07-29T02:08:02;6.57;;;2.65;;
56083;SDS011;41958;52.416;13.428;2022-07-29T02:10:30;6.18;;;2.70;;
56083;SDS011;41958;52.416;13.428;2022-07-29T02:12:57;5.35;;;2.95;;
56083;SDS011;41958;52.416;13.428;2022-07-29T02:15:24;5.57;;;2.85;;
56083;SDS011;41958;52.416;13.428;2022-07-29T02:17:56;6.70;;;3.53;;
56083;SDS011;41958;52.416;13.428;2022-07-29T02:20:25;6.63;;;3.17;;
56083;SDS011;41958;52.416;13.428;2022-07-29T02:22:52;8.13;;;3.08;;
56083;SDS011;41958;52.416;13.428;2022-07-29T02:25:19;4.15;;;2.95;;
56083;SDS011;41958;52.416;13.428;2022-07-29T02:27:47;7.45;;;3.20;;
56083;SDS011;41958;52.416;13.428;2022-07-29T02:30:15;5.32;;;2.78;;
56083;SDS011;41958;52.416;13.428;2022-07-29T02:32:41;3.10;;;2.35;;
56083;SDS011;41958;52.416;13.428;2022-07-29T02:35:08;6.80;;;3.13;;
56083;SDS011;41958;52.416;13.428;2022-07-29T02:37:35;5.22;;;2.97;;
56083;SDS011;41958;52.416;13.428;2022-07-29T02:40:02;5.25;;;2.70;;
56083;SDS011;41958;52.416;13.428;2022-07-29T02:42:28;4.32;;;3.05;;
56083;SDS011;41958;52.416;13.428;2022-07-29T02:44:55;5.50;;;3.17;;
56083;SDS011;41958;52.416;13.428;2022-07-29T02:47:23;4.85;;;2.90;;
56083;SDS011;41958;52.416;13.428;2022-07-29T02:50:06;7.40;;;3.20;;
56083;SDS011;41958;52.416;13.428;2022-07-29T02:52:47;5.95;;;2.58;;
56083;SDS011;41958;52.416;13.428;2022-07-29T02:55:26;4.25;;;2.63;;
56083;SDS011;41958;52.416;13.428;2022-07-29T03:00:38;5.75;;;2.90;;
56083;SDS011;41958;52.416;13.428;2022-07-29T03:03:07;5.57;;;2.50;;
56083;SDS011;41958;52.416;13.428;2022-07-29T03:05:35;4.70;;;2.90;;
56083;SDS011;41958;52.416;13.428;2022-07-29T03:08:02;5.22;;;3.05;;
56083;SDS011;41958;52.416;13.428;2022-07-29T03:10:29;5.57;;;2.58;;
56083;SDS011;41958;52.416;13.428;2022-07-29T03:12:55;4.60;;;3.00;;
56083;SDS011;41958;52.416;13.428;2022-07-29T03:15:22;5.18;;;2.60;;
56083;SDS011;41958;52.416;13.428;2022-07-29T03:17:47;3.35;;;2.47;;
56083;SDS011;41958;52.416;13.428;2022-07-29T03:20:14;6.28;;;3.03;;
56083;SDS011;41958;52.416;13.428;2022-07-29T03:22:41;8.23;;;3.13;;
56083;SDS011;41958;52.416;13.428;2022-07-29T03:25:14;4.55;;;2.58;;
56083;SDS011;41958;52.416;13.428;2022-07-29T03:27:40;4.75;;;2.80;;
56083;SDS011;41958;52.416;13.428;2022-07-29T03:30:06;3.88;;;2.35;;
56083;SDS011;41958;52.416;13.428;2022-07-29T03:32:32;5.53;;;2.85;;
56083;SDS011;41958;52.416;13.428;2022-07-29T03:34:57;8.63;;;3.03;;
56083;SDS011;41958;52.416;13.428;2022-07-29T03:37:23;10.35;;;2.88;;
56083;SDS011;41958;52.416;13.428;2022-07-29T03:39:48;4.32;;;2.67;;
56083;SDS011;41958;52.416;13.428;2022-07-29T03:42:15;4.93;;;2.70;;
56083;SDS011;41958;52.416;13.428;2022-07-29T03:44:44;6.22;;;2.97;;
56083;SDS011;41958;52.416;13.428;2022-07-29T03:47:12;5.38;;;2.70;;
56083;SDS011;41958;52.416;13.428;2022-07-29T03:49:39;4.07;;;3.00;;
56083;SDS011;41958;52.416;13.428;2022-07-29T03:52:05;4.05;;;2.72;;
56083;SDS011;41958;52.416;13.428;2022-07-29T03:54:31;8.30;;;3.15;;
56083;SDS011;41958;52.416;13.428;2022-07-29T03:56:56;3.45;;;2.95;;
56083;SDS011;41958;52.416;13.428;2022-07-29T03:59:24;5.80;;;2.83;;
56083;SDS011;41958;52.416;13.428;2022-07-29T04:01:50;11.88;;;3.05;;
56083;SDS011;41958;52.416;13.428;2022-07-29T04:04:15;4.32;;;2.85;;
56083;SDS011;41958;52.416;13.428;2022-07-29T04:06:41;8.70;;;3.00;;
56083;SDS011;41958;52.416;13.428;2022-07-29T04:09:08;5.68;;;2.80;;
56083;SDS011;41958;52.416;13.428;2022-07-29T04:11:35;6.15;;;2.80;;
56083;SDS011;41958;52.416;13.428;2022-07-29T04:14:01;7.88;;;2.70;;
56083;SDS011;41958;52.416;13.428;2022-07-29T04:16:26;5.38;;;3.00;;
56083;SDS011;41958;52.416;13.428;2022-07-29T04:18:52;7.80;;;3.00;;
56083;SDS011;41958;52.416;13.428;2022-07-29T04:21:17;4.03;;;2.75;;
56083;SDS011;41958;52.416;13.428;2022-07-29T04:23:42;7.88;;;3.22;;
56083;SDS011;41958;52.416;13.428;2022-07-29T04:26:10;8.48;;;3.13;;
56083;SDS011;41958;52.416;13.428;2022-07-29T04:28:35;5.90;;;2.63;;
56083;SDS011;41958;52.416;13.428;2022-07-29T04:31:00;3.15;;;2.85;;
56083;SDS011;41958;52.416;13.428;2022-07-29T04:33:26;7.68;;;3.03;;
56083;SDS011;41958;52.416;13.428;2022-07-29T04:35:51;5.07;;;2.88;;
56083;SDS011;41958;52.416;13.428;2022-07-29T04:38:17;6.68;;;3.08;;
56083;SDS011;41958;52.416;13.428;2022-07-29T04:40:42;6.13;;;3.20;;
56083;SDS011;41958;52.416;13.428;2022-07-29T04:43:07;5.35;;;2.97;;
56083;SDS011;41958;52.416;13.428;2022-07-29T04:45:32;4.55;;;2.88;;
56083;SDS011;41958;52.416;13.428;2022-07-29T04:47:58;5.25;;;3.25;;
56083;SDS011;41958;52.416;13.428;2022-07-29T04:50:23;4.32;;;2.90;;
56083;SDS011;41958;52.416;13.428;2022-07-29T04:52:48;4.90;;;2.40;;
56083;SDS011;41958;52.416;13.428;2022-07-29T04:55:14;4.32;;;2.70;;
56083;SDS011;41958;52.416;13.428;2022-07-29T04:57:39;6.30;;;2.90;;
56083;SDS011;41958;52.416;13.428;2022-07-29T05:00:05;5.70;;;2.70;;
56083;SDS011;41958;52.416;13.428;2022-07-29T05:02:31;4.93;;;2.45;;
56083;SDS011;41958;52.416;13.428;2022-07-29T05:04:56;6.28;;;2.85;;
56083;SDS011;41958;52.416;13.428;2022-07-29T05:07:21;9.68;;;2.85;;
56083;SDS011;41958;52.416;13.428;2022-07-29T05:09:46;5.47;;;2.78;;
56083;SDS011;41958;52.416;13.428;2022-07-29T05:12:12;4.22;;;2.80;;
56083;SDS011;41958;52.416;13.428;2022-07-29T05:14:37;6.80;;;2.58;;
56083;SDS011;41958;52.416;13.428;2022-07-29T05:17:02;8.13;;;2.70;;
56083;SDS011;41958;52.416;13.428;2022-07-29T05:19:28;7.50;;;2.83;;
56083;SDS011;41958;52.416;13.428;2022-07-29T05:21:53;4.25;;;2.45;;
56083;SDS011;41958;52.416;13.428;2022-07-29T05:24:18;5.00;;;2.72;;
56083;SDS011;41958;52.416;13.428;2022-07-29T05:26:43;3.25;;;2.13;;
56083;SDS011;41958;52.416;13.428;2022-07-29T05:29:09;7.35;;;2.70;;
56083;SDS011;41958;52.416;13.428;2022-07-29T05:31:34;6.50;;;2.63;;
56083;SDS011;41958;52.416;13.428;2022-07-29T05:33:59;5.30;;;3.08;;
56083;SDS011;41958;52.416;13.428;2022-07-29T05:36:25;5.32;;;2.78;;
56083;SDS011;41958;52.416;13.428;2022-07-29T05:38:50;5.90;;;2.47;;
56083;SDS011;41958;52.416;13.428;2022-07-29T05:41:17;5.20;;;2.30;;
56083;SDS011;41958;52.416;13.428;2022-07-29T05:43:42;5.90;;;2.60;;
56083;SDS011;41958;52.416;13.428;2022-07-29T05:46:07;6.72;;;2.50;;
56083;SDS011;41958;52.416;13.428;2022-07-29T05:48:33;5.20;;;2.60;;
56083;SDS011;41958;52.416;13.428;2022-07-29T05:50:58;3.92;;;2.20;;
56083;SDS011;41958;52.416;13.428;2022-07-29T05:53:23;7.05;;;2.95;;
56083;SDS011;41958;52.416;13.428;2022-07-29T05:55:49;5.28;;;2.25;;
56083;SDS011;41958;52.416;13.428;2022-07-29T05:58:14;3.80;;;2.47;;
56083;SDS011;41958;52.416;13.428;2022-07-29T06:00:40;5.05;;;2.50;;
56083;SDS011;41958;52.416;13.428;2022-07-29T06:03:05;6.07;;;2.50;;
56083;SDS011;41958;52.416;13.428;2022-07-29T06:05:30;5.40;;;3.05;;
56083;SDS011;41958;52.416;13.428;2022-07-29T06:07:56;4.15;;;2.38;;
56083;SDS011;41958;52.416;13.428;2022-07-29T06:10:21;4.72;;;2.13;;
56083;SDS011;41958;52.416;13.428;2022-07-29T06:12:46;5.18;;;2.20;;
56083;SDS011;41958;52.416;13.428;2022-07-29T06:15:11;5.28;;;2.17;;
56083;SDS011;41958;52.416;13.428;2022-07-29T06:17:37;10.50;;;2.63;;
56083;SDS011;41958;52.416;13.428;2022-07-29T06:20:02;5.80;;;2.38;;
56083;SDS011;41958;52.416;13.428;2022-07-29T06:22:28;5.20;;;2.65;;
56083;SDS011;41958;52.416;13.428;2022-07-29T06:24:53;7.63;;;2.70;;
56083;SDS011;41958;52.416;13.428;2022-07-29T06:27:19;4.32;;;2.38;;
56083;SDS011;41958;52.416;13.428;2022-07-29T06:29:44;5.38;;;2.47;;
56083;SDS011;41958;52.416;13.428;2022-07-29T06:32:09;4.95;;;2.50;;
56083;SDS011;41958;52.416;13.428;2022-07-29T06:34:35;3.83;;;1.95;;
56083;SDS011;41958;52.416;13.428;2022-07-29T06:37:05;7.60;;;2.50;;
56083;SDS011;41958;52.416;13.428;2022-07-29T06:39:36;5.22;;;2.13;;
56083;SDS011;41958;52.416;13.428;2022-07-29T06:42:03;5.07;;;2.58;;
56083;SDS011;41958;52.416;13.428;2022-07-29T06:44:29;7.50;;;2.30;;
56083;SDS011;41958;52.416;13.428;2022-07-29T06:46:54;4.40;;;1.95;;
56083;SDS011;41958;52.416;13.428;2022-07-29T06:49:20;3.85;;;2.28;;
56083;SDS011;41958;52.416;13.428;2022-07-29T06:51:45;4.18;;;2.05;;
56083;SDS011;41958;52.416;13.428;2022-07-29T06:54:10;9.70;;;2.53;;
56083;SDS011;41958;52.416;13.428;2022-07-29T06:56:35;7.38;;;2.78;;
56083;SDS011;41958;52.416;13.428;2022-07-29T06:59:02;8.90;;;1.90;;
56083;SDS011;41958;52.416;13.428;2022-07-29T07:01:28;4.10;;;1.98;;
56083;SDS011;41958;52.416;13.428;2022-07-29T07:03:53;5.35;;;2.20;;
56083;SDS011;41958;52.416;13.428;2022-07-29T07:06:18;4.72;;;2.38;;
56083;SDS011;41958;52.416;13.428;2022-07-29T07:08:44;7.05;;;2.45;;
56083;SDS011;41958;52.416;13.428;2022-07-29T07:11:09;6.63;;;2.38;;
56083;SDS011;41958;52.416;13.428;2022-07-29T07:13:34;2.58;;;1.95;;
56083;SDS011;41958;52.416;13.428;2022-07-29T07:16:03;6.28;;;2.15;;
56083;SDS011;41958;52.416;13.428;2022-07-29T07:18:28;5.55;;;2.22;;
56083;SDS011;41958;52.416;13.428;2022-07-29T07:20:53;5.45;;;1.77;;
56083;SDS011;41958;52.416;13.428;2022-07-29T07:23:19;6.22;;;2.08;;
56083;SDS011;41958;52.416;13.428;2022-07-29T07:25:44;6.50;;;2.17;;
56083;SDS011;41958;52.416;13.428;2022-07-29T07:28:10;4.20;;;2.28;;
56083;SDS011;41958;52.416;13.428;2022-07-29T07:30:35;4.47;;;1.80;;
56083;SDS011;41958;52.416;13.428;2022-07-29T07:33:00;4.57;;;2.40;;
56083;SDS011;41958;52.416;13.428;2022-07-29T07:35:25;5.55;;;2.20;;
56083;SDS011;41958;52.416;13.428;2022-07-29T07:37:52;3.90;;;1.95;;
56083;SDS011;41958;52.416;13.428;2022-07-29T07:40:18;4.20;;;2.20;;
56083;SDS011;41958;52.416;13.428;2022-07-29T07:42:43;4.03;;;1.90;;
56083;SDS011;41958;52.416;13.428;2022-07-29T07:45:09;2.45;;;1.65;;
56083;SDS011;41958;52.416;13.428;2022-07-29T07:47:35;3.72;;;1.65;;
56083;SDS011;41958;52.416;13.428;2022-07-29T07:50:01;4.45;;;1.90;;
56083;SDS011;41958;52.416;13.428;2022-07-29T07:52:28;2.80;;;2.10;;
56083;SDS011;41958;52.416;13.428;2022-07-29T07:54:53;6.95;;;1.77;;
56083;SDS011;41958;52.416;13.428;2022-07-29T07:57:18;7.20;;;2.00;;
56083;SDS011;41958;52.416;13.428;2022-07-29T07:59:44;3.08;;;1.80;;
56083;SDS011;41958;52.416;13.428;2022-07-29T08:02:09;3.85;;;1.55;;
56083;SDS011;41958;52.416;13.428;2022-07-29T08:04:35;3.42;;;1.67;;
56083;SDS011;41958;52.416;13.428;2022-07-29T08:07:01;4.32;;;1.63;;
56083;SDS011;41958;52.416;13.428;2022-07-29T08:09:28;3.22;;;1.90;;
56083;SDS011;41958;52.416;13.428;2022-07-29T08:11:53;3.83;;;1.63;;
56083;SDS011;41958;52.416;13.428;2022-07-29T08:14:19;3.30;;;1.52;;
56083;SDS011;41958;52.416;13.428;2022-07-29T08:16:45;2.97;;;1.70;;
56083;SDS011;41958;52.416;13.428;2022-07-29T08:19:10;3.45;;;1.48;;
56083;SDS011;41958;52.416;13.428;2022-07-29T08:21:35;2.55;;;1.40;;
56083;SDS011;41958;52.416;13.428;2022-07-29T08:24:01;3.45;;;1.77;;
56083;SDS011;41958;52.416;13.428;2022-07-29T08:26:45;5.70;;;1.48;;
56083;SDS011;41958;52.416;13.428;2022-07-29T08:29:10;2.22;;;1.30;;
56083;SDS011;41958;52.416;13.428;2022-07-29T08:31:36;8.60;;;1.80;;
56083;SDS011;41958;52.416;13.428;2022-07-29T08:34:02;7.20;;;1.63;;
56083;SDS011;41958;52.416;13.428;2022-07-29T08:36:28;6.18;;;1.85;;
56083;SDS011;41958;52.416;13.428;2022-07-29T08:38:54;3.28;;;1.50;;
56083;SDS011;41958;52.416;13.428;2022-07-29T08:41:19;7.07;;;1.38;;
56083;SDS011;41958;52.416;13.428;2022-07-29T08:43:45;6.65;;;1.75;;
56083;SDS011;41958;52.416;13.428;2022-07-29T08:46:10;5.63;;;1.70;;
56083;SDS011;41958;52.416;13.428;2022-07-29T08:48:36;2.90;;;1.30;;
56083;SDS011;41958;52.416;13.428;2022-07-29T08:51:01;6.03;;;1.77;;
56083;SDS011;41958;52.416;13.428;2022-07-29T08:53:27;3.92;;;1.73;;
56083;SDS011;41958;52.416;13.428;2022-07-29T08:55:54;2.97;;;1.90;;
56083;SDS011;41958;52.416;13.428;2022-07-29T08:58:20;7.28;;;1.60;;
56083;SDS011;41958;52.416;13.428;2022-07-29T09:00:49;6.93;;;1.52;;
56083;SDS011;41958;52.416;13.428;2022-07-29T09:03:17;3.67;;;1.63;;
56083;SDS011;41958;52.416;13.428;2022-07-29T09:05:44;2.72;;;1.40;;
56083;SDS011;41958;52.416;13.428;2022-07-29T09:08:11;4.97;;;1.52;;
56083;SDS011;41958;52.416;13.428;2022-07-29T09:10:38;3.50;;;1.30;;
56083;SDS011;41958;52.416;13.428;2022-07-29T09:13:04;8.02;;;1.92;;
56083;SDS011;41958;52.416;13.428;2022-07-29T09:15:29;6.18;;;1.95;;
56083;SDS011;41958;52.416;13.428;2022-07-29T09:17:55;3.08;;;1.10;;
56083;SDS011;41958;52.416;13.428;2022-07-29T09:20:21;3.92;;;1.40;;
56083;SDS011;41958;52.416;13.428;2022-07-29T09:22:47;2.63;;;1.30;;
56083;SDS011;41958;52.416;13.428;2022-07-29T09:25:34;3.92;;;1.50;;
56083;SDS011;41958;52.416;13.428;2022-07-29T09:28:11;3.53;;;1.35;;
56083;SDS011;41958;52.416;13.428;2022-07-29T09:30:53;8.18;;;1.40;;
56083;SDS011;41958;52.416;13.428;2022-07-29T09:33:23;3.33;;;1.33;;
56083;SDS011;41958;52.416;13.428;2022-07-29T09:36:08;2.75;;;1.50;;
56083;SDS011;41958;52.416;13.428;2022-07-29T09:38:34;6.72;;;1.50;;
56083;SDS011;41958;52.416;13.428;2022-07-29T09:41:02;4.75;;;0.98;;
56083;SDS011;41958;52.416;13.428;2022-07-29T09:43:29;4.63;;;1.48;;
56083;SDS011;41958;52.416;13.428;2022-07-29T09:45:55;6.25;;;1.77;;
56083;SDS011;41958;52.416;13.428;2022-07-29T09:48:21;9.60;;;1.45;;
56083;SDS011;41958;52.416;13.428;2022-07-29T09:50:48;6.63;;;1.40;;
56083;SDS011;41958;52.416;13.428;2022-07-29T09:53:34;6.95;;;1.20;;
56083;SDS011;41958;52.416;13.428;2022-07-29T09:56:01;5.40;;;1.25;;
56083;SDS011;41958;52.416;13.428;2022-07-29T09:58:26;5.80;;;1.48;;
56083;SDS011;41958;52.416;13.428;2022-07-29T10:00:52;10.45;;;1.45;;
56083;SDS011;41958;52.416;13.428;2022-07-29T10:03:19;6.00;;;1.15;;
56083;SDS011;41958;52.416;13.428;2022-07-29T10:05:45;4.65;;;1.45;;
56083;SDS011;41958;52.416;13.428;2022-07-29T10:08:28;3.30;;;1.10;;
56083;SDS011;41958;52.416;13.428;2022-07-29T10:11:02;2.60;;;1.00;;
56083;SDS011;41958;52.416;13.428;2022-07-29T10:13:34;7.90;;;1.00;;
56083;SDS011;41958;52.416;13.428;2022-07-29T10:15:59;7.33;;;1.63;;
56083;SDS011;41958;52.416;13.428;2022-07-29T10:18:25;3.03;;;1.25;;
56083;SDS011;41958;52.416;13.428;2022-07-29T10:20:50;4.93;;;1.27;;
56083;SDS011;41958;52.416;13.428;2022-07-29T10:23:16;11.30;;;1.80;;
56083;SDS011;41958;52.416;13.428;2022-07-29T10:25:41;3.85;;;1.23;;
56083;SDS011;41958;52.416;13.428;2022-07-29T10:28:07;7.10;;;1.15;;
56083;SDS011;41958;52.416;13.428;2022-07-29T10:30:32;1.10;;;0.90;;
56083;SDS011;41958;52.416;13.428;2022-07-29T10:33:16;3.15;;;1.10;;
56083;SDS011;41958;52.416;13.428;2022-07-29T10:38:47;4.20;;;1.30;;
56083;SDS011;41958;52.416;13.428;2022-07-29T10:41:43;2.63;;;0.80;;
56083;SDS011;41958;52.416;13.428;2022-07-29T10:44:21;1.77;;;0.98;;
56083;SDS011;41958;52.416;13.428;2022-07-29T10:46:48;4.03;;;1.73;;
56083;SDS011;41958;52.416;13.428;2022-07-29T10:49:15;8.15;;;1.30;;
56083;SDS011;41958;52.416;13.428;2022-07-29T10:54:14;1.90;;;0.90;;
56083;SDS011;41958;52.416;13.428;2022-07-29T10:56:40;6.50;;;1.17;;
56083;SDS011;41958;52.416;13.428;2022-07-29T11:01:47;4.43;;;1.17;;
56083;SDS011;41958;52.416;13.428;2022-07-29T11:04:14;6.18;;;1.25;;
56083;SDS011;41958;52.416;13.428;2022-07-29T11:09:23;1.30;;;1.15;;
56083;SDS011;41958;52.416;13.428;2022-07-29T11:11:48;5.88;;;1.40;;
56083;SDS011;41958;52.416;13.428;2022-07-29T11:14:14;5.38;;;1.33;;
56083;SDS011;41958;52.416;13.428;2022-07-29T11:19:37;4.75;;;1.40;;
56083;SDS011;41958;52.416;13.428;2022-07-29T11:22:07;9.60;;;1.73;;
56083;SDS011;41958;52.416;13.428;2022-07-29T11:24:33;6.03;;;1.17;;
56083;SDS011;41958;52.416;13.428;2022-07-29T11:27:12;9.38;;;1.83;;
56083;SDS011;41958;52.416;13.428;2022-07-29T11:29:49;3.58;;;1.25;;
56083;SDS011;41958;52.416;13.428;2022-07-29T11:32:17;8.90;;;2.20;;
56083;SDS011;41958;52.416;13.428;2022-07-29T11:34:44;1.92;;;1.63;;
56083;SDS011;41958;52.416;13.428;2022-07-29T11:39:44;3.35;;;1.98;;
56083;SDS011;41958;52.416;13.428;2022-07-29T11:45:02;4.72;;;1.63;;
56083;SDS011;41958;52.416;13.428;2022-07-29T11:47:35;5.28;;;2.10;;
56083;SDS011;41958;52.416;13.428;2022-07-29T11:50:14;5.78;;;1.77;;
56083;SDS011;41958;52.416;13.428;2022-07-29T11:52:44;5.75;;;1.75;;
56083;SDS011;41958;52.416;13.428;2022-07-29T11:55:15;6.45;;;1.70;;
56083;SDS011;41958;52.416;13.428;2022-07-29T11:57:45;3.85;;;1.80;;
56083;SDS011;41958;52.416;13.428;2022-07-29T12:00:22;4.63;;;2.00;;
56083;SDS011;41958;52.416;13.428;2022-07-29T12:02:52;5.60;;;1.90;;
56083;SDS011;41958;52.416;13.428;2022-07-29T12:05:18;5.07;;;1.95;;
56083;SDS011;41958;52.416;13.428;2022-07-29T12:07:43;9.95;;;1.90;;
56083;SDS011;41958;52.416;13.428;2022-07-29T12:10:09;3.42;;;1.77;;
56083;SDS011;41958;52.416;13.428;2022-07-29T12:12:34;4.90;;;2.20;;
56083;SDS011;41958;52.416;13.428;2022-07-29T12:15:17;12.10;;;1.92;;
56083;SDS011;41958;52.416;13.428;2022-07-29T12:17:45;3.50;;;1.80;;
56083;SDS011;41958;52.416;13.428;2022-07-29T12:20:11;3.40;;;2.30;;
56083;SDS011;41958;52.416;13.428;2022-07-29T12:22:38;4.00;;;1.73;;
56083;SDS011;41958;52.416;13.428;2022-07-29T12:27:36;4.38;;;1.98;;
56083;SDS011;41958;52.416;13.428;2022-07-29T12:30:05;1.92;;;1.70;;
56083;SDS011;41958;52.416;13.428;2022-07-29T12:32:37;3.80;;;1.98;;
56083;SDS011;41958;52.416;13.428;2022-07-29T12:35:14;2.28;;;1.98;;
56083;SDS011;41958;52.416;13.428;2022-07-29T12:37:44;5.75;;;2.17;;
56083;SDS011;41958;52.416;13.428;2022-07-29T12:40:12;6.65;;;2.08;;
56083;SDS011;41958;52.416;13.428;2022-07-29T12:42:39;6.03;;;2.15;;
56083;SDS011;41958;52.416;13.428;2022-07-29T12:45:05;3.00;;;2.10;;
56083;SDS011;41958;52.416;13.428;2022-07-29T12:47:32;2.35;;;1.73;;
56083;SDS011;41958;52.416;13.428;2022-07-29T12:50:11;3.83;;;1.60;;
56083;SDS011;41958;52.416;13.428;2022-07-29T12:52:42;7.78;;;2.42;;
56083;SDS011;41958;52.416;13.428;2022-07-29T12:55:08;4.05;;;2.00;;
56083;SDS011;41958;52.416;13.428;2022-07-29T12:57:44;2.25;;;2.05;;
56083;SDS011;41958;52.416;13.428;2022-07-29T13:00:11;9.15;;;2.20;;
56083;SDS011;41958;52.416;13.428;2022-07-29T13:02:38;5.57;;;2.15;;
56083;SDS011;41958;52.416;13.428;2022-07-29T13:05:06;5.45;;;1.88;;
56083;SDS011;41958;52.416;13.428;2022-07-29T13:07:33;9.55;;;2.30;;
56083;SDS011;41958;52.416;13.428;2022-07-29T13:10:10;3.53;;;1.90;;
56083;SDS011;41958;52.416;13.428;2022-07-29T13:13:01;3.03;;;1.67;;
56083;SDS011;41958;52.416;13.428;2022-07-29T13:15:31;3.13;;;2.00;;
56083;SDS011;41958;52.416;13.428;2022-07-29T13:17:57;10.18;;;2.17;;
56083;SDS011;41958;52.416;13.428;2022-07-29T13:20:27;3.08;;;1.70;;
56083;SDS011;41958;52.416;13.428;2022-07-29T13:22:54;4.85;;;2.22;;
56083;SDS011;41958;52.416;13.428;2022-07-29T13:25:28;7.72;;;2.05;;
56083;SDS011;41958;52.416;13.428;2022-07-29T13:30:20;7.55;;;2.25;;
56083;SDS011;41958;52.416;13.428;2022-07-29T13:32:47;3.15;;;2.28;;
56083;SDS011;41958;52.416;13.428;2022-07-29T13:35:12;5.18;;;2.53;;
56083;SDS011;41958;52.416;13.428;2022-07-29T13:37:38;3.72;;;1.80;;
56083;SDS011;41958;52.416;13.428;2022-07-29T13:40:05;2.90;;;1.92;;
56083;SDS011;41958;52.416;13.428;2022-07-29T13:42:32;8.85;;;2.28;;
56083;SDS011;41958;52.416;13.428;2022-07-29T13:44:57;6.13;;;2.40;;
56083;SDS011;41958;52.416;13.428;2022-07-29T13:47:23;3.80;;;2.20;;
56083;SDS011;41958;52.416;13.428;2022-07-29T13:49:48;6.88;;;2.05;;
56083;SDS011;41958;52.416;13.428;2022-07-29T13:52:14;4.38;;;2.50;;
56083;SDS011;41958;52.416;13.428;2022-07-29T13:54:40;4.40;;;2.00;;
56083;SDS011;41958;52.416;13.428;2022-07-29T13:57:05;2.47;;;1.75;;
56083;SDS011;41958;52.416;13.428;2022-07-29T13:59:31;4.82;;;1.95;;
56083;SDS011;41958;52.416;13.428;2022-07-29T14:01:56;3.80;;;2.30;;
56083;SDS011;41958;52.416;13.428;2022-07-29T14:04:21;10.07;;;2.42;;
56083;SDS011;41958;52.416;13.428;2022-07-29T14:06:48;5.97;;;2.00;;
56083;SDS011;41958;52.416;13.428;2022-07-29T14:09:13;3.78;;;2.08;;
56083;SDS011;41958;52.416;13.428;2022-07-29T14:11:39;3.03;;;1.90;;
56083;SDS011;41958;52.416;13.428;2022-07-29T14:14:04;2.03;;;1.90;;
56083;SDS011;41958;52.416;13.428;2022-07-29T14:16:29;5.97;;;2.00;;
56083;SDS011;41958;52.416;13.428;2022-07-29T14:18:55;5.97;;;1.90;;
56083;SDS011;41958;52.416;13.428;2022-07-29T14:21:20;2.30;;;1.90;;
56083;SDS011;41958;52.416;13.428;2022-07-29T14:23:45;6.63;;;2.05;;
56083;SDS011;41958;52.416;13.428;2022-07-29T14:26:10;5.97;;;2.00;;
56083;SDS011;41958;52.416;13.428;2022-07-29T14:28:36;5.22;;;2.25;;
56083;SDS011;41958;52.416;13.428;2022-07-29T14:31:01;6.00;;;2.30;;
56083;SDS011;41958;52.416;13.428;2022-07-29T14:33:26;3.78;;;1.90;;
56083;SDS011;41958;52.416;13.428;2022-07-29T14:35:51;3.87;;;1.90;;
56083;SDS011;41958;52.416;13.428;2022-07-29T14:38:17;4.93;;;1.70;;
56083;SDS011;41958;52.416;13.428;2022-07-29T14:40:42;6.37;;;2.13;;
56083;SDS011;41958;52.416;13.428;2022-07-29T14:43:07;3.47;;;1.93;;
56083;SDS011;41958;52.416;13.428;2022-07-29T14:45:32;4.80;;;2.10;;
56083;SDS011;41958;52.416;13.428;2022-07-29T14:47:58;4.03;;;1.87;;
56083;SDS011;41958;52.416;13.428;2022-07-29T14:50:24;3.70;;;2.10;;
56083;SDS011;41958;52.416;13.428;2022-07-29T14:52:51;10.18;;;2.08;;
56083;SDS011;41958;52.416;13.428;2022-07-29T14:55:16;4.60;;;1.80;;
56083;SDS011;41958;52.416;13.428;2022-07-29T14:57:41;3.53;;;1.70;;
56083;SDS011;41958;52.416;13.428;2022-07-29T15:00:07;3.40;;;2.10;;
56083;SDS011;41958;52.416;13.428;2022-07-29T15:02:33;6.05;;;2.03;;
56083;SDS011;41958;52.416;13.428;2022-07-29T15:04:58;4.45;;;1.88;;
56083;SDS011;41958;52.416;13.428;2022-07-29T15:07:24;2.97;;;1.85;;
56083;SDS011;41958;52.416;13.428;2022-07-29T15:09:49;3.20;;;1.75;;